LOKF weather

Feldkirchen Aerodrome
Feldkirchen, Carinthia, Austria

Public forecast

Using degrees Celsius for public forecast. Weather courtesy of forecast.io.

METAR (pilot weather report)

Closest report is Klagenfurt Airport, 11.4 nm (21.2 km) ESE. Retrieved 2019/09/22 20:20 UTC (0 seconds ago):

LOWK 222020Z VRB02KT 9999 FEW060 SCT160 12/09 Q1014 NOSIG

TAF (pilot weather forecast)

Closest forecast is Klagenfurt Airport, 11.4 nm (21.2 km) ESE. Retrieved 2019/09/22 18:24 UTC (2 hours ago):

TAF LOWK 221715Z 2218/2318 VRB02KT 9999 FEW060 SCT120 BKN300 TX16/2313Z TN08/2304Z TEMPO 2309/2318 -SHRA SCT050 FEW050CB BKN090 PROB40 TEMPO 2314/2318 5000 RA SCT020 BKN040